createdAt,value
2024-02-02T00:01:13.194Z,28.88
2024-02-02T00:03:40.989Z,27.15
2024-02-02T00:06:09.237Z,29.30
2024-02-02T00:08:37.234Z,28.45
2024-02-02T00:11:06.859Z,31.55
2024-02-02T00:13:34.491Z,31.45
2024-02-02T00:16:02.163Z,32.53
2024-02-02T00:18:30.021Z,32.25
2024-02-02T00:20:58.621Z,32.55
2024-02-02T00:23:26.267Z,30.92
2024-02-02T00:25:53.982Z,29.45
2024-02-02T00:28:23.265Z,29.42
2024-02-02T00:30:50.975Z,30.50
2024-02-02T00:33:18.760Z,31.95
2024-02-02T00:35:46.488Z,30.00
2024-02-02T00:38:14.123Z,32.25
2024-02-02T00:40:41.754Z,31.05
2024-02-02T00:43:09.801Z,29.60
2024-02-02T00:45:38.822Z,30.63
2024-02-02T00:48:08.136Z,27.38
2024-02-02T00:50:35.943Z,29.25
2024-02-02T00:53:03.624Z,29.92
2024-02-02T00:55:31.405Z,30.60
2024-02-02T00:57:59.090Z,30.00
2024-02-02T01:00:27.099Z,30.95
2024-02-02T01:02:56.466Z,29.90
2024-02-02T01:05:24.218Z,31.73
2024-02-02T01:07:51.871Z,31.52
2024-02-02T01:10:19.683Z,32.15
2024-02-02T01:12:48.079Z,33.28
2024-02-02T01:15:17.695Z,33.28
2024-02-02T01:17:47.167Z,31.00
2024-02-02T01:20:16.917Z,31.08
2024-02-02T01:22:44.600Z,32.92
2024-02-02T01:25:13.139Z,30.50
2024-02-02T01:27:41.068Z,33.33
2024-02-02T01:30:09.260Z,34.42
2024-02-02T01:32:37.103Z,32.60
2024-02-02T01:35:05.025Z,33.97
2024-02-02T01:37:34.773Z,31.50
2024-02-02T01:40:02.484Z,30.50
2024-02-02T01:42:31.251Z,28.85
2024-02-02T01:44:59.378Z,29.77
2024-02-02T01:47:27.558Z,30.10
2024-02-02T01:49:55.256Z,29.90
2024-02-02T01:52:22.940Z,31.83
2024-02-02T01:54:52.114Z,30.38
2024-02-02T01:57:20.512Z,30.20
2024-02-02T01:59:48.578Z,29.50
2024-02-02T02:02:18.922Z,28.52
2024-02-02T02:04:46.745Z,28.83
2024-02-02T02:07:14.547Z,29.50
2024-02-02T02:09:44.062Z,29.17
2024-02-02T02:12:13.750Z,26.40
2024-02-02T02:14:41.476Z,26.40
2024-02-02T02:17:09.436Z,27.55
2024-02-02T02:19:37.556Z,28.30
2024-02-02T02:22:06.817Z,27.40
2024-02-02T02:24:34.494Z,26.27
2024-02-02T02:27:02.600Z,28.77
2024-02-02T02:29:30.300Z,25.55
2024-02-02T02:31:58.707Z,24.50
2024-02-02T02:34:28.110Z,24.23
2024-02-02T02:36:56.200Z,25.08
2024-02-02T02:39:25.234Z,24.30
2024-02-02T02:41:52.978Z,24.80
2024-02-02T02:44:20.693Z,25.95
2024-02-02T02:46:49.244Z,26.83
2024-02-02T02:49:17.214Z,26.92
2024-02-02T02:51:44.968Z,28.73
2024-02-02T02:54:12.694Z,27.70
2024-02-02T02:56:41.777Z,27.95
2024-02-02T02:59:09.443Z,28.38
2024-02-02T03:01:37.483Z,28.98
2024-02-02T03:04:05.244Z,27.95
2024-02-02T03:06:33.067Z,26.13
2024-02-02T03:09:01.360Z,26.77
2024-02-02T03:11:30.100Z,25.77
2024-02-02T03:13:59.166Z,26.45
2024-02-02T03:16:26.858Z,26.25
2024-02-02T03:18:54.738Z,28.60
2024-02-02T03:21:22.550Z,28.02
2024-02-02T03:23:50.252Z,29.08
2024-02-02T03:26:17.853Z,28.25
2024-02-02T03:28:45.548Z,29.88
2024-02-02T03:31:14.603Z,27.75
2024-02-02T03:33:42.381Z,26.25
2024-02-02T03:36:10.346Z,25.92
2024-02-02T03:38:38.061Z,25.83
2024-02-02T03:41:05.854Z,23.52
2024-02-02T03:43:33.526Z,22.13
2024-02-02T03:46:01.617Z,23.05
2024-02-02T03:48:31.154Z,25.67
2024-02-02T03:50:58.902Z,23.90
2024-02-02T03:53:29.202Z,25.52
2024-02-02T03:55:56.964Z,27.80
2024-02-02T03:58:24.733Z,27.63
2024-02-02T04:00:52.687Z,25.38
2024-02-02T04:03:20.695Z,27.70
2024-02-02T04:05:49.926Z,24.92
2024-02-02T04:08:17.716Z,25.02
2024-02-02T04:10:45.456Z,24.55
2024-02-02T04:13:13.146Z,24.27
2024-02-02T04:15:41.183Z,23.38
2024-02-02T04:18:09.254Z,21.20
2024-02-02T04:20:37.020Z,20.08
2024-02-02T04:23:06.258Z,20.33
2024-02-02T04:25:34.061Z,20.83
2024-02-02T04:28:01.736Z,20.40
2024-02-02T04:30:31.527Z,18.30
2024-02-02T04:32:59.586Z,18.67
2024-02-02T04:35:27.363Z,18.27
2024-02-02T04:37:55.083Z,17.45
2024-02-02T04:40:24.126Z,17.98
2024-02-02T04:42:52.000Z,17.27
2024-02-02T04:45:19.876Z,18.40
2024-02-02T04:47:47.730Z,19.00
2024-02-02T04:50:15.602Z,20.73
2024-02-02T04:52:43.335Z,19.80
2024-02-02T04:55:11.330Z,20.48
2024-02-02T04:57:40.611Z,23.15
2024-02-02T05:00:09.964Z,21.63
2024-02-02T05:02:37.655Z,20.95
2024-02-02T05:05:06.493Z,22.15
2024-02-02T05:07:34.178Z,21.80
2024-02-02T05:10:01.946Z,22.98
2024-02-02T05:12:29.720Z,21.30
2024-02-02T05:14:58.758Z,22.60
2024-02-02T05:17:26.472Z,22.05
2024-02-02T05:19:54.363Z,23.88
2024-02-02T05:22:22.053Z,27.20
2024-02-02T05:24:50.667Z,29.35
2024-02-02T05:27:18.576Z,29.38
2024-02-02T05:29:46.446Z,30.67
2024-02-02T05:32:15.741Z,35.15
2024-02-02T05:34:45.349Z,38.80
2024-02-02T05:37:13.250Z,41.45
2024-02-02T05:39:41.019Z,36.30
2024-02-02T05:42:08.941Z,37.53
2024-02-02T05:44:36.775Z,37.38
2024-02-02T05:47:04.493Z,35.65
2024-02-02T05:49:33.739Z,33.90
2024-02-02T05:52:02.608Z,36.58
2024-02-02T05:54:31.229Z,31.73
2024-02-02T05:56:59.086Z,32.17
2024-02-02T05:59:26.805Z,33.20
2024-02-02T06:01:55.567Z,33.13
2024-02-02T06:04:23.225Z,30.13
2024-02-02T06:06:52.637Z,30.42
2024-02-02T06:09:20.537Z,30.83
2024-02-02T06:11:48.298Z,31.65
2024-02-02T06:14:15.967Z,28.80
2024-02-02T06:16:46.625Z,30.33
2024-02-02T06:19:14.479Z,28.70
2024-02-02T06:21:42.350Z,28.25
2024-02-02T06:24:11.596Z,27.58
2024-02-02T06:26:39.260Z,29.73
2024-02-02T06:29:06.993Z,28.38
2024-02-02T06:31:34.612Z,27.88
2024-02-02T06:34:02.604Z,27.17
2024-02-02T06:36:30.921Z,27.42
2024-02-02T06:38:58.945Z,27.00
2024-02-02T06:41:28.206Z,26.52
2024-02-02T06:43:55.943Z,27.98
2024-02-02T06:46:23.670Z,29.10
2024-02-02T06:48:51.449Z,27.80
2024-02-02T06:51:19.271Z,28.42
2024-02-02T06:53:47.189Z,27.13
2024-02-02T06:56:30.050Z,27.90
2024-02-02T06:58:59.172Z,26.98
2024-02-02T07:01:27.191Z,26.88
2024-02-02T07:03:54.996Z,28.05
2024-02-02T07:06:23.165Z,27.45
2024-02-02T07:08:51.561Z,27.10
2024-02-02T07:11:34.903Z,28.65
2024-02-02T07:14:10.518Z,28.08
2024-02-02T07:16:38.900Z,30.50
2024-02-02T07:19:06.761Z,31.25
2024-02-02T07:21:35.380Z,28.73
2024-02-02T07:24:05.256Z,29.30
2024-02-02T07:26:33.780Z,27.85
2024-02-02T07:29:06.934Z,27.33
2024-02-02T07:31:40.009Z,26.67
2024-02-02T07:34:23.018Z,29.90
2024-02-02T07:36:51.305Z,28.02
2024-02-02T07:39:25.522Z,27.95
2024-02-02T07:41:53.281Z,28.67
2024-02-02T07:44:21.004Z,27.77
2024-02-02T07:46:50.174Z,26.85
2024-02-02T07:49:17.870Z,26.83
2024-02-02T07:51:45.563Z,28.13
2024-02-02T07:54:14.174Z,26.95
2024-02-02T07:56:42.118Z,27.83
2024-02-02T07:59:09.847Z,27.35
2024-02-02T08:01:38.220Z,26.67
2024-02-02T08:04:07.545Z,26.13
2024-02-02T08:06:35.552Z,27.92
2024-02-02T08:09:03.309Z,28.42
2024-02-02T08:11:36.650Z,28.13
2024-02-02T08:14:04.525Z,26.85
2024-02-02T08:16:32.233Z,27.38
2024-02-02T08:19:00.749Z,26.80
2024-02-02T08:21:29.940Z,27.30
2024-02-02T08:23:57.683Z,26.80
2024-02-02T08:26:25.741Z,26.23
2024-02-02T08:28:55.329Z,26.63
2024-02-02T08:31:23.370Z,26.13
2024-02-02T08:33:51.321Z,25.80
2024-02-02T08:36:19.905Z,27.63
2024-02-02T08:38:49.060Z,24.83
2024-02-02T08:41:17.445Z,25.00
2024-02-02T08:43:46.617Z,25.10
2024-02-02T08:46:15.215Z,24.98
2024-02-02T08:48:45.903Z,25.45
2024-02-02T08:51:30.635Z,23.17
2024-02-02T08:54:09.704Z,21.77
2024-02-02T08:56:37.423Z,19.98
2024-02-02T08:59:08.092Z,19.88
2024-02-02T09:01:41.042Z,19.40
2024-02-02T09:04:24.140Z,19.05
2024-02-02T09:06:52.092Z,18.63
2024-02-02T09:09:22.062Z,17.90
2024-02-02T09:11:50.278Z,17.70
2024-02-02T09:14:19.540Z,16.23
2024-02-02T09:16:48.903Z,17.90
2024-02-02T09:19:25.204Z,17.42
2024-02-02T09:21:53.158Z,17.60
2024-02-02T09:24:37.324Z,17.77
2024-02-02T09:27:05.564Z,15.13
2024-02-02T09:29:33.448Z,18.83
2024-02-02T09:32:01.190Z,17.58
2024-02-02T09:34:35.352Z,16.25
2024-02-02T09:37:03.438Z,16.27
2024-02-02T09:39:48.976Z,16.70
2024-02-02T09:42:32.272Z,16.08
2024-02-02T09:45:02.558Z,15.95
2024-02-02T09:47:38.650Z,14.77
2024-02-02T09:50:10.808Z,14.65
2024-02-02T09:52:42.868Z,16.63
2024-02-02T09:57:43.352Z,16.42
2024-02-02T10:00:17.774Z,15.23
2024-02-02T10:02:51.300Z,15.55
2024-02-02T10:05:20.951Z,15.90
2024-02-02T10:07:55.132Z,13.38
2024-02-02T10:10:29.231Z,13.00
2024-02-02T10:13:03.924Z,11.52
2024-02-02T10:15:41.226Z,10.55
2024-02-02T10:18:20.455Z,10.55
2024-02-02T10:20:52.466Z,10.35
2024-02-02T10:23:31.963Z,9.48
2024-02-02T10:26:05.377Z,8.05
2024-02-02T10:28:41.448Z,6.80
2024-02-02T10:31:15.970Z,6.80
2024-02-02T10:33:50.414Z,6.85
2024-02-02T10:36:22.817Z,6.80
2024-02-02T10:39:00.369Z,6.85
2024-02-02T10:41:33.010Z,6.25
2024-02-02T10:44:07.839Z,6.00
2024-02-02T10:46:38.589Z,6.20
2024-02-02T10:49:15.609Z,6.80
2024-02-02T10:51:45.261Z,7.15
2024-02-02T10:54:21.518Z,6.63
2024-02-02T10:56:58.962Z,7.00
2024-02-02T10:59:35.484Z,7.95
2024-02-02T11:02:08.135Z,7.20
2024-02-02T11:04:37.508Z,7.70
2024-02-02T11:07:09.513Z,7.72
2024-02-02T11:12:07.798Z,7.60
2024-02-02T11:14:39.661Z,6.75
2024-02-02T11:17:10.715Z,7.15
2024-02-02T11:19:56.115Z,6.50
2024-02-02T11:22:26.846Z,6.30
2024-02-02T11:25:07.875Z,6.90
2024-02-02T11:27:40.969Z,6.70
2024-02-02T11:30:18.326Z,6.55
2024-02-02T11:32:56.014Z,6.50
2024-02-02T11:35:29.888Z,6.50
2024-02-02T11:38:02.547Z,6.30
2024-02-02T11:40:31.085Z,5.75
2024-02-02T11:43:00.349Z,6.20
2024-02-02T11:45:32.761Z,5.68
2024-02-02T11:48:03.270Z,6.88
2024-02-02T11:50:33.174Z,5.90
2024-02-02T11:53:05.238Z,5.28
2024-02-02T11:55:34.313Z,4.75
2024-02-02T11:58:04.389Z,5.35
2024-02-02T12:00:41.776Z,5.07
2024-02-02T12:03:18.715Z,4.35
2024-02-02T12:05:51.656Z,4.20
2024-02-02T12:08:23.943Z,4.28
2024-02-02T12:10:51.949Z,3.88
2024-02-02T12:13:23.002Z,4.20
2024-02-02T12:15:54.083Z,4.18
2024-02-02T12:18:22.019Z,4.47
2024-02-02T12:20:49.808Z,3.75
2024-02-02T12:23:17.839Z,4.10
2024-02-02T12:25:45.537Z,3.53
2024-02-02T12:28:13.182Z,3.50
2024-02-02T12:30:40.889Z,3.60
2024-02-02T12:33:10.060Z,3.00
2024-02-02T12:35:37.826Z,3.30
2024-02-02T12:38:05.852Z,3.38
2024-02-02T12:40:33.676Z,2.92
2024-02-02T12:43:03.560Z,3.40
2024-02-02T12:45:32.817Z,3.50
2024-02-02T12:48:01.611Z,3.83
2024-02-02T12:50:30.740Z,3.25
2024-02-02T12:52:59.602Z,3.58
2024-02-02T12:55:27.358Z,3.20
2024-02-02T12:57:55.061Z,3.45
2024-02-02T13:00:25.641Z,3.88
2024-02-02T13:02:55.621Z,3.17
2024-02-02T13:05:25.830Z,3.50
2024-02-02T13:07:55.000Z,3.10
2024-02-02T13:10:36.556Z,3.15
2024-02-02T13:13:11.762Z,3.75
2024-02-02T13:15:39.913Z,3.42
2024-02-02T13:18:13.664Z,3.10
2024-02-02T13:20:43.494Z,4.00
2024-02-02T13:23:17.687Z,3.40
2024-02-02T13:25:45.355Z,3.47
2024-02-02T13:28:17.115Z,3.33
2024-02-02T13:30:53.928Z,3.13
2024-02-02T13:33:24.162Z,3.65
2024-02-02T13:35:54.753Z,2.97
2024-02-02T13:38:25.195Z,3.20
2024-02-02T13:40:54.966Z,3.00
2024-02-02T13:43:22.943Z,3.38
2024-02-02T13:45:50.884Z,3.30
2024-02-02T13:48:18.634Z,3.08
2024-02-02T13:50:53.207Z,3.53
2024-02-02T13:53:24.877Z,3.00
2024-02-02T13:55:53.236Z,3.60
2024-02-02T13:58:21.072Z,3.35
2024-02-02T14:00:52.993Z,3.35
2024-02-02T14:05:52.126Z,3.83
2024-02-02T14:08:21.343Z,4.07
2024-02-02T14:10:50.404Z,3.72
2024-02-02T14:13:20.375Z,3.80
2024-02-02T14:15:49.762Z,3.80
2024-02-02T14:18:18.044Z,3.97
2024-02-02T14:20:45.815Z,3.75
2024-02-02T14:23:13.854Z,3.67
2024-02-02T14:25:41.678Z,3.53
2024-02-02T14:28:17.874Z,3.80
2024-02-02T14:30:46.049Z,4.45
2024-02-02T14:33:22.315Z,4.22
2024-02-02T14:35:53.408Z,3.88
2024-02-02T14:38:21.387Z,3.60
2024-02-02T14:40:49.899Z,3.58
2024-02-02T14:43:19.090Z,3.88
2024-02-02T14:45:48.027Z,3.58
2024-02-02T14:48:15.966Z,3.83
2024-02-02T14:50:43.729Z,3.70
2024-02-02T14:53:11.366Z,3.85
2024-02-02T14:55:38.975Z,3.83
2024-02-02T14:58:06.641Z,3.35
2024-02-02T15:00:42.496Z,4.07
2024-02-02T15:03:10.260Z,3.38
2024-02-02T15:05:38.512Z,3.42
2024-02-02T15:08:06.639Z,3.42
2024-02-02T15:10:35.187Z,3.58
2024-02-02T15:13:02.966Z,3.50
2024-02-02T15:15:30.717Z,3.40
2024-02-02T15:18:00.277Z,4.53
2024-02-02T15:20:28.042Z,3.80
2024-02-02T15:22:55.865Z,3.20
2024-02-02T15:25:23.537Z,3.70
2024-02-02T15:27:51.343Z,3.60
2024-02-02T15:30:19.185Z,3.13
2024-02-02T15:32:47.341Z,2.97
2024-02-02T15:35:16.892Z,3.42
2024-02-02T15:37:44.776Z,2.92
2024-02-02T15:40:15.010Z,3.47
2024-02-02T15:42:41.832Z,2.63
2024-02-02T15:45:11.333Z,2.60
2024-02-02T15:47:39.173Z,2.90
2024-02-02T15:50:07.255Z,3.03
2024-02-02T15:52:36.417Z,2.80
2024-02-02T15:55:05.946Z,3.00
2024-02-02T15:57:33.723Z,2.50
2024-02-02T16:00:01.537Z,2.45
2024-02-02T16:02:29.235Z,2.53
2024-02-02T16:04:57.736Z,2.20
2024-02-02T16:07:25.680Z,2.33
2024-02-02T16:09:57.455Z,2.83
2024-02-02T16:12:25.252Z,3.70
2024-02-02T16:14:52.991Z,2.50
2024-02-02T16:17:20.601Z,2.42
2024-02-02T16:19:48.563Z,2.63
2024-02-02T16:22:16.358Z,2.65
2024-02-02T16:24:44.088Z,2.22
2024-02-02T16:27:13.345Z,2.60
2024-02-02T16:29:41.114Z,2.58
2024-02-02T16:32:10.178Z,2.38
2024-02-02T16:34:37.985Z,2.47
2024-02-02T16:37:05.946Z,2.60
2024-02-02T16:39:34.389Z,2.88
2024-02-02T16:42:02.717Z,2.42
2024-02-02T16:44:31.883Z,2.70
2024-02-02T16:47:01.222Z,2.40
2024-02-02T16:49:29.300Z,3.15
2024-02-02T16:51:57.121Z,2.67
2024-02-02T16:54:24.900Z,2.42
2024-02-02T16:56:53.326Z,2.40
2024-02-02T16:59:21.006Z,2.53
2024-02-02T17:01:50.129Z,2.70
2024-02-02T17:04:18.004Z,2.42
2024-02-02T17:06:45.875Z,2.67
2024-02-02T17:09:13.719Z,2.58
2024-02-02T17:11:41.428Z,2.35
2024-02-02T17:14:09.662Z,2.45
2024-02-02T17:16:37.355Z,2.40
2024-02-02T17:19:06.940Z,2.78
2024-02-02T17:21:34.750Z,2.25
2024-02-02T17:24:02.415Z,2.10
2024-02-02T17:26:30.193Z,2.45
2024-02-02T17:29:03.629Z,2.55
2024-02-02T17:31:38.924Z,2.72
2024-02-02T17:34:08.001Z,2.67
2024-02-02T17:36:35.785Z,2.67
2024-02-02T17:39:03.664Z,2.58
2024-02-02T17:41:31.523Z,3.15
2024-02-02T17:43:59.239Z,3.10
2024-02-02T17:46:26.892Z,3.20
2024-02-02T17:48:54.717Z,6.47
2024-02-02T17:51:25.437Z,3.55
2024-02-02T17:53:53.898Z,3.70
2024-02-02T17:56:22.439Z,2.72
2024-02-02T17:58:55.725Z,3.70
2024-02-02T18:01:23.790Z,2.33
2024-02-02T18:03:52.577Z,2.60
2024-02-02T18:06:20.523Z,2.25
2024-02-02T18:08:49.872Z,2.25
2024-02-02T18:11:17.597Z,1.77
2024-02-02T18:13:45.381Z,2.70
2024-02-02T18:16:14.447Z,2.45
2024-02-02T18:18:42.591Z,2.05
2024-02-02T18:21:10.555Z,2.03
2024-02-02T18:23:38.717Z,2.22
2024-02-02T18:26:08.200Z,2.30
2024-02-02T18:28:35.986Z,2.60
2024-02-02T18:31:04.476Z,2.85
2024-02-02T18:33:32.397Z,2.28
2024-02-02T18:36:00.268Z,2.70
2024-02-02T18:38:28.142Z,2.10
2024-02-02T18:40:55.832Z,2.47
2024-02-02T18:43:24.902Z,2.80
2024-02-02T18:45:52.567Z,3.30
2024-02-02T18:48:24.775Z,2.63
2024-02-02T18:50:52.636Z,2.67
2024-02-02T18:53:20.333Z,2.47
2024-02-02T18:55:50.200Z,2.28
2024-02-02T18:58:19.453Z,2.50
2024-02-02T19:00:49.825Z,2.10
2024-02-02T19:03:17.729Z,2.55
2024-02-02T19:05:48.054Z,2.75
2024-02-02T19:08:15.932Z,2.75
2024-02-02T19:10:45.524Z,2.35
2024-02-02T19:13:13.575Z,2.83
2024-02-02T19:15:41.362Z,3.13
2024-02-02T19:18:12.729Z,3.30
2024-02-02T19:20:41.709Z,3.50
2024-02-02T19:23:09.363Z,3.83
2024-02-02T19:25:36.986Z,4.18
2024-02-02T19:28:05.701Z,4.07
2024-02-02T19:30:33.497Z,11.52
2024-02-02T19:33:01.337Z,14.98
2024-02-02T19:35:30.361Z,5.57
2024-02-02T19:37:58.047Z,3.78
2024-02-02T19:40:25.708Z,3.90
2024-02-02T19:42:53.788Z,3.50
2024-02-02T19:45:21.638Z,3.28
2024-02-02T19:47:49.608Z,12.10
2024-02-02T19:50:17.405Z,4.80
2024-02-02T19:52:46.558Z,4.00
2024-02-02T19:55:14.667Z,3.97
2024-02-02T19:57:42.493Z,2.53
2024-02-02T20:00:14.862Z,3.33
2024-02-02T20:02:43.018Z,4.57
2024-02-02T20:05:10.959Z,4.18
2024-02-02T20:07:38.775Z,3.72
2024-02-02T20:10:09.772Z,3.65
2024-02-02T20:12:38.063Z,2.80
2024-02-02T20:15:06.178Z,3.58
2024-02-02T20:17:33.967Z,3.15
2024-02-02T20:20:01.847Z,2.67
2024-02-02T20:22:29.699Z,3.00
2024-02-02T20:24:57.505Z,3.67
2024-02-02T20:27:26.853Z,3.53
2024-02-02T20:29:54.541Z,3.22
2024-02-02T20:32:22.185Z,4.70
2024-02-02T20:34:49.123Z,11.23
2024-02-02T20:37:17.073Z,4.97
2024-02-02T20:39:44.963Z,3.95
2024-02-02T20:42:14.921Z,4.13
2024-02-02T20:44:44.308Z,3.17
2024-02-02T20:47:12.278Z,2.63
2024-02-02T20:49:45.149Z,3.75
2024-02-02T20:52:14.276Z,3.10
2024-02-02T20:54:42.409Z,3.13
2024-02-02T20:57:10.260Z,2.65
2024-02-02T20:59:38.056Z,2.67
2024-02-02T21:02:07.445Z,3.42
2024-02-02T21:04:35.281Z,4.13
2024-02-02T21:07:08.424Z,3.97
2024-02-02T21:09:39.026Z,4.50
2024-02-02T21:12:08.171Z,4.72
2024-02-02T21:14:35.930Z,5.40
2024-02-02T21:17:03.768Z,6.00
2024-02-02T21:19:33.325Z,6.80
2024-02-02T21:22:02.843Z,6.55
2024-02-02T21:24:30.749Z,5.80
2024-02-02T21:26:58.561Z,4.57
2024-02-02T21:29:26.938Z,4.20
2024-02-02T21:31:54.709Z,5.13
2024-02-02T21:34:22.558Z,4.95
2024-02-02T21:36:51.769Z,4.07
2024-02-02T21:39:19.652Z,4.38
2024-02-02T21:41:47.519Z,5.35
2024-02-02T21:44:15.445Z,5.45
2024-02-02T21:46:43.397Z,5.93
2024-02-02T21:49:11.604Z,5.35
2024-02-02T21:51:39.543Z,5.90
2024-02-02T21:54:11.637Z,5.63
2024-02-02T21:59:07.040Z,6.63
2024-02-02T22:01:35.369Z,5.85
2024-02-02T22:04:03.161Z,4.95
2024-02-02T22:06:30.931Z,5.13
2024-02-02T22:08:59.155Z,3.65
2024-02-02T22:11:28.307Z,3.50
2024-02-02T22:13:56.037Z,3.30
2024-02-02T22:16:23.733Z,3.20
2024-02-02T22:18:51.603Z,2.65
2024-02-02T22:21:24.665Z,2.58
2024-02-02T22:23:52.549Z,2.90
2024-02-02T22:26:20.559Z,2.80
2024-02-02T22:28:49.631Z,3.30
2024-02-02T22:31:21.347Z,3.20
2024-02-02T22:33:49.617Z,4.03
2024-02-02T22:36:18.037Z,2.97
2024-02-02T22:38:45.755Z,3.78
2024-02-02T22:41:28.848Z,4.22
2024-02-02T22:44:02.921Z,3.67
2024-02-02T22:46:31.590Z,3.38
2024-02-02T22:48:59.504Z,3.92
2024-02-02T22:51:27.893Z,3.38
2024-02-02T22:53:55.606Z,3.15
2024-02-02T22:56:23.424Z,4.30
2024-02-02T22:58:51.245Z,4.43
2024-02-02T23:01:20.461Z,5.05
2024-02-02T23:03:48.471Z,5.07
2024-02-02T23:06:16.377Z,4.85
2024-02-02T23:08:44.181Z,6.50
2024-02-02T23:11:11.897Z,6.07
2024-02-02T23:13:39.635Z,7.22
2024-02-02T23:16:07.635Z,6.32
2024-02-02T23:18:36.936Z,5.85
2024-02-02T23:21:05.305Z,5.90
2024-02-02T23:23:34.301Z,6.35
2024-02-02T23:26:02.224Z,6.60
2024-02-02T23:28:30.091Z,7.82
2024-02-02T23:30:57.800Z,7.32
2024-02-02T23:33:26.837Z,6.60
2024-02-02T23:35:56.777Z,6.13
2024-02-02T23:38:24.424Z,6.07
2024-02-02T23:40:52.194Z,6.35
2024-02-02T23:43:19.827Z,6.72
2024-02-02T23:45:47.570Z,6.18
2024-02-02T23:48:17.543Z,6.63
2024-02-02T23:50:46.092Z,5.57
2024-02-02T23:53:15.431Z,5.78
2024-02-02T23:55:43.100Z,6.38
2024-02-02T23:58:10.750Z,6.45
